createdAt,value
2023-11-14T00:03:51.237Z,3.39
2023-11-14T00:09:03.152Z,3.62
2023-11-14T00:14:01.736Z,3.93
2023-11-14T00:19:13.127Z,4.16
2023-11-14T00:24:11.272Z,4.73
2023-11-14T00:29:23.255Z,4.95
2023-11-14T00:34:21.619Z,5.01
2023-11-14T00:39:33.328Z,5.02
2023-11-14T00:44:31.623Z,5.40
2023-11-14T00:49:43.458Z,5.17
2023-11-14T00:54:41.570Z,4.97
2023-11-14T00:59:53.428Z,4.73
2023-11-14T01:04:51.698Z,4.84
2023-11-14T01:10:03.370Z,5.01
2023-11-14T01:15:01.487Z,5.19
2023-11-14T01:20:13.659Z,5.00
2023-11-14T01:25:11.664Z,5.12
2023-11-14T01:30:27.197Z,5.33
2023-11-14T01:35:25.989Z,5.52
2023-11-14T01:40:42.592Z,5.16
2023-11-14T01:45:41.675Z,5.07
2023-11-14T01:50:53.721Z,4.55
2023-11-14T01:55:52.349Z,4.45
2023-11-14T02:01:04.442Z,4.42
2023-11-14T02:06:02.515Z,4.22
2023-11-14T02:11:14.163Z,4.49
2023-11-14T02:16:12.629Z,4.98
2023-11-14T02:21:24.606Z,5.18
2023-11-14T02:26:23.215Z,5.37
2023-11-14T02:31:35.616Z,5.84
2023-11-14T02:36:33.797Z,5.80
2023-11-14T02:41:44.068Z,5.71
2023-11-14T02:46:42.781Z,6.06
2023-11-14T02:51:54.573Z,5.91
2023-11-14T02:56:53.143Z,5.64
2023-11-14T03:02:05.199Z,5.72
2023-11-14T03:07:03.213Z,5.88
2023-11-14T03:12:15.342Z,6.02
2023-11-14T03:17:14.153Z,5.97
2023-11-14T03:22:26.297Z,6.02
2023-11-14T03:27:24.473Z,6.32
2023-11-14T03:32:36.475Z,6.17
2023-11-14T03:37:34.690Z,5.88
2023-11-14T03:42:46.491Z,6.20
2023-11-14T03:47:44.641Z,5.76
2023-11-14T03:52:56.925Z,5.97
2023-11-14T03:57:55.112Z,6.13
2023-11-14T04:03:07.896Z,6.19
2023-11-14T04:08:06.088Z,6.36
2023-11-14T04:13:17.391Z,6.63
2023-11-14T04:18:15.445Z,6.18
2023-11-14T04:23:27.997Z,6.64
2023-11-14T04:28:26.783Z,6.68
2023-11-14T04:33:38.374Z,6.63
2023-11-14T04:38:36.491Z,6.96
2023-11-14T04:43:48.279Z,7.20
2023-11-14T04:48:47.133Z,7.09
2023-11-14T04:53:59.365Z,7.28
2023-11-14T04:58:58.030Z,6.67
2023-11-14T05:04:09.748Z,7.24
2023-11-14T05:09:08.073Z,7.65
2023-11-14T05:14:20.456Z,7.96
2023-11-14T05:19:19.149Z,8.68
2023-11-14T05:24:31.837Z,8.37
2023-11-14T05:29:30.055Z,9.56
2023-11-14T05:34:42.526Z,9.33
2023-11-14T05:39:41.063Z,9.30
2023-11-14T05:44:53.496Z,11.62
2023-11-14T05:49:52.320Z,10.28
2023-11-14T05:55:04.911Z,11.92
2023-11-14T06:00:03.700Z,10.48
2023-11-14T06:05:16.928Z,10.14
2023-11-14T06:10:15.134Z,10.34
2023-11-14T06:15:30.981Z,10.11
2023-11-14T06:20:29.676Z,10.40
2023-11-14T06:25:42.573Z,10.32
2023-11-14T06:30:40.816Z,10.38
2023-11-14T06:35:53.374Z,10.61
2023-11-14T06:40:51.684Z,10.47
2023-11-14T06:46:03.953Z,10.30
2023-11-14T06:51:02.688Z,10.38
2023-11-14T06:56:15.800Z,10.55
2023-11-14T07:01:14.840Z,10.79
2023-11-14T07:06:26.531Z,10.60
2023-11-14T07:11:24.734Z,10.46
2023-11-14T07:16:37.932Z,10.57
2023-11-14T07:21:36.642Z,10.99
2023-11-14T07:26:49.710Z,10.65
2023-11-14T07:31:48.905Z,10.57
2023-11-14T07:42:06.577Z,10.30
2023-11-14T07:47:15.463Z,10.11
2023-11-14T07:52:17.485Z,9.98
2023-11-14T07:57:15.956Z,10.17
2023-11-14T08:02:27.375Z,10.44
2023-11-14T08:07:25.548Z,10.42
2023-11-14T08:12:38.315Z,9.93
2023-11-14T08:17:38.076Z,10.04
2023-11-14T08:22:50.508Z,10.16
2023-11-14T08:27:49.655Z,9.88
2023-11-14T08:33:02.539Z,9.86
2023-11-14T08:38:09.915Z,9.67
2023-11-14T08:43:13.056Z,9.34
2023-11-14T08:48:12.185Z,9.81
2023-11-14T08:53:26.186Z,9.39
2023-11-14T08:58:24.434Z,9.70
2023-11-14T09:03:36.331Z,9.55
2023-11-14T09:08:34.362Z,9.65
2023-11-14T09:13:47.512Z,9.77
2023-11-14T09:18:45.822Z,10.20
2023-11-14T09:23:57.477Z,14.75
2023-11-14T09:28:56.060Z,10.87
2023-11-14T09:34:08.690Z,12.83
2023-11-14T09:39:09.443Z,31.68
2023-11-14T09:44:18.341Z,72.13
2023-11-14T09:49:16.438Z,11.58
2023-11-14T09:54:28.204Z,14.96
2023-11-14T09:59:26.468Z,19.26
2023-11-14T10:04:38.521Z,10.32
2023-11-14T10:09:36.756Z,10.73
2023-11-14T10:14:48.535Z,10.09
2023-11-14T10:19:47.055Z,10.29
2023-11-14T10:24:59.419Z,11.26
2023-11-14T10:29:58.036Z,10.61
2023-11-14T10:35:09.269Z,10.95
2023-11-14T10:40:07.591Z,11.60
2023-11-14T10:45:19.466Z,11.50
2023-11-14T10:50:18.273Z,12.07
2023-11-14T10:55:30.320Z,11.04
2023-11-14T11:00:28.717Z,10.81
2023-11-14T11:05:40.407Z,10.87
2023-11-14T11:10:39.188Z,12.05
2023-11-14T11:15:51.798Z,12.73
2023-11-14T11:20:50.223Z,12.14
2023-11-14T11:26:02.855Z,11.99
2023-11-14T11:31:01.895Z,11.91
2023-11-14T11:36:13.286Z,11.77
2023-11-14T11:41:14.714Z,11.72
2023-11-14T11:46:22.249Z,12.44
2023-11-14T11:51:20.688Z,12.79
2023-11-14T11:56:32.446Z,12.93
2023-11-14T12:01:31.592Z,14.64
2023-11-14T12:06:44.355Z,12.50
2023-11-14T12:11:42.511Z,13.22
2023-11-14T12:16:54.265Z,13.47
2023-11-14T12:21:52.275Z,13.44
2023-11-14T12:27:04.197Z,13.09
2023-11-14T12:32:02.430Z,12.72
2023-11-14T12:37:14.421Z,12.85
2023-11-14T12:42:12.721Z,12.48
2023-11-14T12:47:25.774Z,12.72
2023-11-14T12:52:24.297Z,13.50
2023-11-14T12:57:36.311Z,12.35
2023-11-14T13:02:35.867Z,12.48
2023-11-14T13:07:45.605Z,12.65
2023-11-14T13:12:44.368Z,14.11
2023-11-14T13:17:56.469Z,13.09
2023-11-14T13:22:54.507Z,14.92
2023-11-14T13:28:06.782Z,12.71
2023-11-14T13:33:05.599Z,12.08
2023-11-14T13:38:18.051Z,12.58
2023-11-14T13:43:16.292Z,13.51
2023-11-14T13:48:28.353Z,13.22
2023-11-14T13:53:26.376Z,14.03
2023-11-14T13:58:38.308Z,14.28
2023-11-14T14:03:37.197Z,15.53
2023-11-14T14:08:49.199Z,15.77
2023-11-14T14:13:47.410Z,15.87
2023-11-14T14:18:59.289Z,14.95
2023-11-14T14:23:57.894Z,14.61
2023-11-14T14:29:09.508Z,15.11
2023-11-14T14:34:09.516Z,17.81
2023-11-14T14:39:19.237Z,17.36
2023-11-14T14:44:17.620Z,17.10
2023-11-14T14:49:29.394Z,17.11
2023-11-14T14:54:27.605Z,15.55
2023-11-14T14:59:39.181Z,13.68
2023-11-14T15:04:37.613Z,19.97
2023-11-14T15:09:49.326Z,20.54
2023-11-14T15:14:47.493Z,17.53
2023-11-14T15:19:59.349Z,14.76
2023-11-14T15:24:57.461Z,13.53
2023-11-14T15:30:09.233Z,13.31
2023-11-14T15:35:07.235Z,13.55
2023-11-14T15:40:19.518Z,12.79
2023-11-14T15:45:17.748Z,12.61
2023-11-14T15:50:29.434Z,13.62
2023-11-14T15:55:27.508Z,16.88
2023-11-14T16:00:39.181Z,17.72
2023-11-14T16:05:37.815Z,17.40
2023-11-14T16:10:51.040Z,16.28
2023-11-14T16:15:49.775Z,16.13
2023-11-14T16:21:03.756Z,15.78
2023-11-14T16:26:02.571Z,14.92
2023-11-14T16:31:15.556Z,14.61
2023-11-14T16:36:14.477Z,14.13
2023-11-14T16:41:28.109Z,14.16
2023-11-14T16:46:30.855Z,14.07
2023-11-14T16:51:33.087Z,13.16
2023-11-14T16:56:32.382Z,13.93
2023-11-14T17:01:44.391Z,13.75
2023-11-14T17:06:43.042Z,13.63
2023-11-14T17:11:55.210Z,13.62
2023-11-14T17:16:53.452Z,13.59
2023-11-14T17:22:05.378Z,13.17
2023-11-14T17:27:03.953Z,13.27
2023-11-14T17:32:15.238Z,13.19
2023-11-14T17:37:14.101Z,14.53
2023-11-14T17:42:28.273Z,14.59
2023-11-14T17:47:28.180Z,13.17
2023-11-14T17:52:41.201Z,13.84
2023-11-14T17:57:41.685Z,13.86
2023-11-14T18:02:45.243Z,14.56
2023-11-14T18:07:44.087Z,13.91
2023-11-14T18:12:57.038Z,14.16
2023-11-14T18:17:56.516Z,14.84
2023-11-14T18:23:09.137Z,16.92
2023-11-14T18:28:08.011Z,17.07
2023-11-14T18:33:20.838Z,15.64
2023-11-14T18:38:20.357Z,15.36
2023-11-14T18:43:33.590Z,15.92
2023-11-14T18:48:32.580Z,15.36
2023-11-14T18:53:45.167Z,17.08
2023-11-14T18:58:43.728Z,15.91
2023-11-14T19:03:56.244Z,20.25
2023-11-14T19:08:54.011Z,20.13
2023-11-14T19:14:06.297Z,15.92
2023-11-14T19:19:04.752Z,15.71
2023-11-14T19:24:16.191Z,17.52
2023-11-14T19:29:14.096Z,17.43
2023-11-14T19:34:26.534Z,16.65
2023-11-14T19:39:27.648Z,16.74
2023-11-14T19:44:29.697Z,21.71
2023-11-14T19:49:30.801Z,23.55
2023-11-14T19:54:39.700Z,20.08
2023-11-14T19:59:37.750Z,16.87
2023-11-14T20:04:49.437Z,18.64
2023-11-14T20:09:47.716Z,16.05
2023-11-14T20:14:59.120Z,13.42
2023-11-14T20:19:57.308Z,14.39
2023-11-14T20:25:09.304Z,13.02
2023-11-14T20:30:07.631Z,20.58
2023-11-14T20:35:19.725Z,28.20
2023-11-14T20:40:17.789Z,20.57
2023-11-14T20:45:29.095Z,20.33
2023-11-14T20:50:27.304Z,27.11
2023-11-14T20:55:39.744Z,17.69
2023-11-14T21:00:37.696Z,16.58
2023-11-14T21:05:49.090Z,21.54
2023-11-14T21:10:47.077Z,21.93
2023-11-14T21:15:59.386Z,19.95
2023-11-14T21:20:58.681Z,34.13
2023-11-14T21:26:10.297Z,20.80
2023-11-14T21:31:08.677Z,27.62
2023-11-14T21:36:20.609Z,22.21
2023-11-14T21:41:19.033Z,25.27
2023-11-14T21:46:30.413Z,28.12
2023-11-14T21:51:29.086Z,23.70
2023-11-14T21:56:41.509Z,19.69
2023-11-14T22:01:39.480Z,21.15
2023-11-14T22:06:51.597Z,16.69
2023-11-14T22:11:50.179Z,24.24
2023-11-14T22:17:02.291Z,16.77
2023-11-14T22:22:00.413Z,20.21
2023-11-14T22:27:12.851Z,20.75
2023-11-14T22:32:11.085Z,18.02
2023-11-14T22:37:23.231Z,13.68
2023-11-14T22:42:21.461Z,12.40
2023-11-14T22:47:33.673Z,13.30
2023-11-14T22:52:32.178Z,12.95
2023-11-14T22:57:44.794Z,11.75
2023-11-14T23:02:43.159Z,13.36
2023-11-14T23:07:55.085Z,11.99
2023-11-14T23:12:53.274Z,11.76
2023-11-14T23:18:05.212Z,11.34
2023-11-14T23:23:03.543Z,11.74
2023-11-14T23:28:15.197Z,11.93
2023-11-14T23:33:13.483Z,10.96
2023-11-14T23:38:25.770Z,11.45
2023-11-14T23:43:23.898Z,11.86
2023-11-14T23:48:35.256Z,11.02
2023-11-14T23:53:33.318Z,10.92
2023-11-14T23:58:45.355Z,11.43
